Windsor, Missouri
Current Conditions -  °F | °C
As of 12:58 PM on Thursday 27 Nov 2014 (Local Time) from KSZL Reporting Station
Broken Clouds Broken Clouds  
Wind Chill: 27°   Ceiling: 7000
Heat Index: 31°   Visibility: 10mi
Dew Point: 21°   Wind: 5mph
Humidity: 65%   Direction: 300°WNW
Pressure: 30.48"   Gusts: NA
Location:  38.53°N, 93.52°W
Report Text: KSZL 271858Z AUTO 30004KT 10SM BKN070 00/M06 A3048 RMK AO2 SLP333 T10041063 $
Loading
Personal Weather Stations






























Interactive Weather Map New forecast layout! Learn more

10-Day Weather Forecast

Advertisements
Track Severe Weather on mobile